地図

経路データ

SID SEASON NUMBER BASIN SUBBASIN NAME ISO_TIME NATURE LAT LON WMO_WIND WMO_PRES WMO_AGENCY TRACK_TYPE DIST2LAND LANDFALL IFLAG USA_AGENCY USA_ATCF_ID USA_LAT USA_LON USA_RECORD USA_STATUS USA_WIND USA_PRES USA_SSHS USA_R34_NE USA_R34_SE USA_R34_SW USA_R34_NW USA_R50_NE USA_R50_SE USA_R50_SW USA_R50_NW USA_R64_NE USA_R64_SE USA_R64_SW USA_R64_NW USA_POCI USA_ROCI USA_RMW USA_EYE TOKYO_LAT TOKYO_LON TOKYO_GRADE TOKYO_WIND TOKYO_PRES TOKYO_R50_DIR TOKYO_R50_LONG TOKYO_R50_SHORT TOKYO_R30_DIR TOKYO_R30_LONG TOKYO_R30_SHORT TOKYO_LAND CMA_LAT CMA_LON CMA_CAT CMA_WIND CMA_PRES HKO_LAT HKO_LON HKO_CAT HKO_WIND HKO_PRES NEWDELHI_LAT NEWDELHI_LON NEWDELHI_GRADE NEWDELHI_WIND NEWDELHI_PRES NEWDELHI_CI NEWDELHI_DP NEWDELHI_POCI REUNION_LAT REUNION_LON REUNION_TYPE REUNION_WIND REUNION_PRES REUNION_TNUM REUNION_CI REUNION_RMW REUNION_R34_NE REUNION_R34_SE REUNION_R34_SW REUNION_R34_NW REUNION_R50_NE REUNION_R50_SE REUNION_R50_SW REUNION_R50_NW REUNION_R64_NE REUNION_R64_SE REUNION_R64_SW REUNION_R64_NW BOM_LAT BOM_LON BOM_TYPE BOM_WIND BOM_PRES BOM_TNUM BOM_CI BOM_RMW BOM_R34_NE BOM_R34_SE BOM_R34_SW BOM_R34_NW BOM_R50_NE BOM_R50_SE BOM_R50_SW BOM_R50_NW BOM_R64_NE BOM_R64_SE BOM_R64_SW BOM_R64_NW BOM_ROCI BOM_POCI BOM_EYE BOM_POS_METHOD BOM_PRES_METHOD NADI_LAT NADI_LON NADI_CAT NADI_WIND NADI_PRES WELLINGTON_LAT WELLINGTON_LON WELLINGTON_WIND WELLINGTON_PRES DS824_LAT DS824_LON DS824_STAGE DS824_WIND DS824_PRES TD9636_LAT TD9636_LON TD9636_STAGE TD9636_WIND TD9636_PRES TD9635_LAT TD9635_LON TD9635_WIND TD9635_PRES TD9635_ROCI NEUMANN_LAT NEUMANN_LON NEUMANN_CLASS NEUMANN_WIND NEUMANN_PRES MLC_LAT MLC_LON MLC_CLASS MLC_WIND MLC_PRES USA_GUST BOM_GUST BOM_GUST_PER REUNION_GUST REUNION_GUST_PER USA_SEAHGT USA_SEARAD_NE USA_SEARAD_SE USA_SEARAD_SW USA_SEARAD_NW STORM_SPEED STORM_DIR
1954273N16146 1954 75 WP MM NANCY 1954-09-30 00:00:00 TS 15.5000 145.900 main 1973 1973 O________OOO__ jtwc_wp WP131954 15.5000 145.900 65 1 15.5000 145.900 TC 65 15.5000 145.900 3 65 15.5000 145.900 65 1006 60 2 298
1954273N16146 1954 75 WP MM NANCY 1954-09-30 03:00:00 TS 15.5524 145.802 main 1984 1984 P________PPP__ WP131954 15.5600 145.798 65 1 15.5600 145.798 TC 65 15.5297 145.816 3 65 15.5600 145.798 65 1006 60 2 296
1954273N16146 1954 75 WP MM NANCY 1954-09-30 06:00:00 TS 15.5894 145.706 main 1985 1985 O________OPO__ jtwc_wp WP131954 15.6000 145.700 65 1 15.6000 145.700 TC 65 15.5575 145.725 3 65 15.6000 145.700 65 1006 60 2 285
1954273N16146 1954 75 WP MM NANCY 1954-09-30 09:00:00 TS 15.6010 145.611 main 1985 1985 P________PPP__ WP131954 15.6075 145.607 65 1 15.6075 145.607 TC 65 15.5815 145.622 3 65 15.6075 145.607 65 1006 60 2 273
1954273N16146 1954 75 WP MM NANCY 1954-09-30 12:00:00 TS 15.6000 145.500 main 1986 1986 O________OOO__ jtwc_wp WP131954 15.6000 145.500 65 1 15.6000 145.500 TC 65 15.6000 145.500 4 65 15.6000 145.500 65 1006 60 2 270
1954273N16146 1954 75 WP MM NANCY 1954-09-30 15:00:00 TS 15.6028 145.357 main 1987 1987 P________PPP__ WP131954 15.6000 145.357 65 1 15.6000 145.357 TC 65 15.6113 145.356 4 65 15.6000 145.357 65 1006 60 3 271
1954273N16146 1954 75 WP MM NANCY 1954-09-30 18:00:00 TS 15.6038 145.200 main 1988 1988 O________OPO__ jtwc_wp WP131954 15.6000 145.200 65 1 15.6000 145.200 TC 65 15.6151 145.200 4 65 15.6000 145.200 65 1007 60 3 270
1954273N16146 1954 75 WP MM NANCY 1954-09-30 21:00:00 TS 15.6028 145.043 main 1990 1990 P________PPP__ WP131954 15.6000 145.042 65 1 15.6000 145.042 TC 65 15.6113 145.044 4 65 15.6000 145.042 65 1007 60 3 269
1954273N16146 1954 75 WP MM NANCY 1954-10-01 00:00:00 TS 15.6000 144.900 main 1991 1991 O________OOO__ jtwc_wp WP131954 15.6000 144.900 65 1 15.6000 144.900 TC 65 15.6000 144.900 4 65 15.6000 144.900 65 1008 60 2 269
1954273N16146 1954 75 WP MM NANCY 1954-10-01 03:00:00 TS 15.6001 144.792 main 1992 1992 P________PPP__ WP131954 15.6075 144.793 65 1 15.6075 144.793 TC 65 15.5781 144.790 4 65 15.6075 144.793 65 1008 60 2 266
1954273N16146 1954 75 WP MM NANCY 1954-10-01 06:00:00 TS 15.5875 144.698 main 1993 1983 O________OPO__ jtwc_wp WP131954 15.6000 144.700 65 1 15.6000 144.700 TC 65 15.5499 144.692 4 65 15.6000 144.700 65 1008 60 2 253
1954273N16146 1954 75 WP MM NANCY 1954-10-01 09:00:00 TS 15.5430 144.600 main 1983 1983 P________PPP__ WP131954 15.5500 144.600 65 1 15.5500 144.600 TC 65 15.5218 144.599 4 65 15.5500 144.600 65 1008 90 2 245
1954273N16146 1954 75 WP MM NANCY 1954-10-01 12:00:00 TS 15.5000 144.500 main 1985 1985 O________OOO__ jtwc_wp WP131954 15.5000 144.500 65 1 15.5000 144.500 TC 65 15.5000 144.500 4 65 15.5000 144.500 65 1008 120 2 256
1954273N16146 1954 75 WP MM NANCY 1954-10-01 15:00:00 TS 15.4926 144.400 main 1986 1986 P________PPP__ WP131954 15.4925 144.408 65 1 15.4925 144.408 TC 65 15.4928 144.378 4 65 15.4925 144.408 65 1008 120 2 269
1954273N16146 1954 75 WP MM NANCY 1954-10-01 18:00:00 TS 15.4981 144.288 main 1987 1987 O________OPO__ jtwc_wp WP131954 15.5000 144.300 65 1 15.5000 144.300 TC 65 15.4925 144.250 4 65 15.5000 144.300 65 1008 120 2 271
1954273N16146 1954 75 WP MM NANCY 1954-10-01 21:00:00 TS 15.4990 144.143 main 1990 1990 P________PPP__ WP131954 15.5000 144.150 65 1 15.5000 144.150 TC 65 15.4959 144.122 4 65 15.5000 144.150 65 1007 90 3 270
1954273N16146 1954 75 WP MM NANCY 1954-10-02 00:00:00 TS 15.5000 144.000 main 1992 1992 O________OOO__ jtwc_wp WP131954 15.5000 144.000 65 1 15.5000 144.000 TC 65 15.5000 144.000 4 65 15.5000 144.000 65 1007 60 2 270
1954273N16146 1954 75 WP MM NANCY 1954-10-02 03:00:00 TS 15.5000 143.895 main 1993 1993 P________PPP__ WP131954 15.5000 143.893 65 1 15.5000 143.893 TC 65 15.4999 143.901 4 65 15.5000 143.893 65 1007 60 2 270
1954273N16146 1954 75 WP MM NANCY 1954-10-02 06:00:00 TS 15.5000 143.802 main 1995 1995 O________OPO__ jtwc_wp WP131954 15.5000 143.800 65 1 15.5000 143.800 TC 65 15.4999 143.808 4 65 15.5000 143.800 65 1007 60 2 270
1954273N16146 1954 75 WP MM NANCY 1954-10-02 09:00:00 TS 15.5000 143.708 main 1997 1988 P________PPP__ WP131954 15.5000 143.708 65 1 15.5000 143.708 TC 65 15.4999 143.710 4 65 15.5000 143.708 65 1007 120 2 270
1954273N16146 1954 75 WP MM NANCY 1954-10-02 12:00:00 TS 15.5000 143.600 main 1988 1978 O________OOO__ jtwc_wp WP131954 15.5000 143.600 65 1 15.5000 143.600 TC 65 15.5000 143.600 4 65 15.5000 143.600 65 1007 180 2 270
1954273N16146 1954 75 WP MM NANCY 1954-10-02 15:00:00 TS 15.5000 143.458 main 1978 1957 P________PPP__ WP131954 15.5000 143.458 65 1 15.5000 143.458 TC 65 15.5000 143.460 4 65 15.5000 143.458 65 1006 180 3 270
1954273N16146 1954 75 WP MM NANCY 1954-10-02 18:00:00 TS 15.5000 143.302 main 1957 1946 O________OPO__ jtwc_wp WP131954 15.5000 143.300 65 1 15.5000 143.300 TC 65 15.5000 143.308 4 65 15.5000 143.300 65 1006 180 3 270
1954273N16146 1954 75 WP MM NANCY 1954-10-02 21:00:00 TS 15.5000 143.150 main 1946 1925 P________PPP__ WP131954 15.5000 143.150 65 1 15.5000 143.150 TC 65 15.5000 143.151 4 65 15.5000 143.150 65 1006 150 3 270
1954273N16146 1954 75 WP MM NANCY 1954-10-03 00:00:00 TS 15.5000 143.000 main 1925 1914 O________OOO__ jtwc_wp WP131954 15.5000 143.000 65 1 15.5000 143.000 TC 65 15.5000 143.000 4 65 15.5000 143.000 65 1006 120 3 270
1954273N16146 1954 75 WP MM NANCY 1954-10-03 03:00:00 TS 15.5000 142.849 main 1904 1893 P________PPP__ WP131954 15.5000 142.842 65 1 15.5000 142.842 TC 65 15.5000 142.868 4 65 15.5000 142.842 65 1006 120 3 270
1954273N16146 1954 75 WP MM NANCY 1954-10-03 06:00:00 TS 15.5000 142.711 main 1893 1883 O________OPO__ jtwc_wp WP131954 15.5000 142.700 65 1 15.5000 142.700 TC 65 15.4999 142.743 4 65 15.5000 142.700 65 1006 120 2 270
1954273N16146 1954 75 WP MM NANCY 1954-10-03 09:00:00 TS 15.5000 142.605 main 1883 1872 P________PPP__ WP131954 15.5000 142.600 65 1 15.5000 142.600 TC 65 15.5000 142.621 4 65 15.5000 142.600 65 1006 120 2 270
1954273N16146 1954 75 WP MM NANCY 1954-10-03 12:00:00 TS 15.5000 142.500 main 1872 1861 O________OOO__ jtwc_wp WP131954 15.5000 142.500 65 1 15.5000 142.500 TC 65 15.5000 142.500 4 65 15.5000 142.500 65 1006 120 2 270
1954273N16146 1954 75 WP MM NANCY 1954-10-03 15:00:00 TS 15.4990 142.359 main 1861 1840 P________PPP__ WP131954 15.5000 142.350 65 1 15.5000 142.350 TC 65 15.4959 142.387 4 65 15.5000 142.350 65 1006 120 3 270
1954273N16146 1954 75 WP MM NANCY 1954-10-03 18:00:00 TS 15.4981 142.218 main 1840 1830 O________OPO__ jtwc_wp WP131954 15.5000 142.200 65 1 15.5000 142.200 TC 65 15.4924 142.272 4 65 15.5000 142.200 65 1006 120 2 268
1954273N16146 1954 75 WP MM NANCY 1954-10-03 21:00:00 TS 15.4925 142.117 main 1830 1819 P________PPP__ WP131954 15.4925 142.107 65 1 15.4925 142.107 TC 65 15.4927 142.147 4 65 15.4925 142.107 65 1006 120 2 271
1954273N16146 1954 75 WP MM NANCY 1954-10-04 00:00:00 TS 15.5000 142.000 main 1819 1798 O________OOO__ jtwc_wp WP131954 15.5000 142.000 65 1 15.5000 142.000 TC 65 15.5000 142.000 4 65 15.5000 142.000 65 1006 120 3 280
1954273N16146 1954 75 WP MM NANCY 1954-10-04 03:00:00 TS 15.5429 141.822 main 1798 1779 P________PPP__ WP131954 15.5500 141.815 65 1 15.5500 141.815 TC 65 15.5217 141.842 4 65 15.5500 141.815 65 1006 150 4 283
1954273N16146 1954 75 WP MM NANCY 1954-10-04 06:00:00 TS 15.5874 141.615 main 1779 1758 O________OPO__ jtwc_wp WP131954 15.6000 141.600 65 1 15.6000 141.600 TC 65 15.5498 141.660 4 65 15.6000 141.600 65 1006 180 4 279
1954273N16146 1954 75 WP MM NANCY 1954-10-04 09:00:00 TS 15.6000 141.429 main 1758 1737 P________PPP__ WP131954 15.6074 141.422 65 1 15.6074 141.422 TC 65 15.5779 141.448 4 65 15.6074 141.422 65 1006 150 4 272
1954273N16146 1954 75 WP MM NANCY 1954-10-04 12:00:00 TS 15.6000 141.200 main 1737 1705 O________OOO__ jtwc_wp WP131954 15.6000 141.200 65 1 15.6000 141.200 TC 65 15.6000 141.200 4 65 15.6000 141.200 65 1006 120 5 270
1954273N16146 1954 75 WP MM NANCY 1954-10-04 15:00:00 TS 15.6027 140.893 main 1705 1674 P________PPP__ WP131954 15.6001 140.865 65 1 15.6001 140.865 TC 65 15.6104 140.976 4 65 15.6001 140.865 65 1006 120 6 269
1954273N16146 1954 75 WP MM NANCY 1954-10-04 18:00:00 TS 15.5914 140.572 main 1674 1642 O_O______OPO__ jtwc_wp WP131954 15.6000 140.500 65 1 15.4000 140.900 0 1006 15.6000 140.500 TC 65 15.6135 140.707 4 65 15.6000 140.500 65 1006 120 6 268
1954273N16146 1954 75 WP MM NANCY 1954-10-04 21:00:00 TS 15.5836 140.311 main 1642 1600 P_P______PPP__ WP131954 15.5988 140.327 65 1 15.4378 140.307 0 1006 15.5997 140.230 TC 65 15.6100 140.360 4 65 15.5988 140.327 65 1006 120 7 269
1954273N16146 1954 75 WP MM NANCY 1954-10-05 00:00:00 TS 15.5850 139.860 1006 tokyo main 1600 1516 OOO______OOO__ jtwc_wp WP131954 15.6000 139.900 65 1 15.6000 139.700 9 1006 0 0 0 15.5000 139.700 0 1006 15.6000 139.900 TC 65 15.6000 139.900 4 65 15.6000 139.900 65 1006 120 12 271
1954273N16146 1954 75 WP MM NANCY 1954-10-05 03:00:00 TS 15.6018 139.033 main 1506 1423 PPP______PPP__ WP131954 15.6102 138.693 65 1 15.6481 138.985 9 1003 0 0 15.5998 139.065 0 1005 15.6071 139.440 TC 65 15.5584 139.297 4 65 15.6102 138.693 65 1005 120 16 271
1954273N16146 1954 75 WP MM NANCY 1954-10-05 06:00:00 TS 15.6153 138.175 1000 tokyo main 1423 1360 OOO______OPO__ jtwc_wp WP131954 15.6000 137.500 65 1 15.7000 138.300 9 1000 0 0 0 15.7000 138.400 0 1005 15.6000 138.800 TC 65 15.5131 138.584 4 65 15.6000 137.500 65 1005 120 14 270
1954273N16146 1954 75 WP MM NANCY 1954-10-05 09:00:00 TS 15.5979 137.586 main 1360 1298 PPP______PPP__ WP131954 15.5258 137.197 65 1 15.7571 137.658 9 1000 0 0 15.7648 137.715 0 1004 15.5278 137.945 TC 65 15.4862 137.803 4 65 15.5258 137.197 65 1004 120 11 269
1954273N16146 1954 75 WP MM NANCY 1954-10-05 12:00:00 TS 15.6000 137.000 1000 tokyo main 1298 1229 OOO______OOO__ jtwc_wp WP131954 15.5000 137.000 65 1 15.8000 137.000 9 1000 0 0 0 15.8000 137.000 0 1004 15.5000 137.000 TC 65 15.5000 137.000 4 65 15.5000 137.000 65 1003 120 13 273
1954273N16146 1954 75 WP MM NANCY 1954-10-05 15:00:00 TS 15.6754 136.220 main 1219 1141 PPP______PPP__ WP131954 15.6282 136.218 65 1 15.7999 136.265 9 1000 0 0 15.7998 136.257 0 1003 15.6273 136.120 TC 65 15.5691 136.240 4 65 15.6282 136.218 65 1002 150 16 277
1954273N16146 1954 75 WP MM NANCY 1954-10-05 18:00:00 TS 15.7803 135.394 1000 tokyo main 1141 1075 OOO______OPO__ jtwc_wp WP131954 15.8000 135.300 65 1 15.8000 135.500 9 1000 0 0 0 15.8000 135.500 1 29 1003 15.8000 135.300 TC 65 15.6817 135.465 4 66 15.8000 135.300 65 1002 180 15 277
1954273N16146 1954 75 WP MM NANCY 1954-10-05 21:00:00 TS 15.8610 134.662 main 1075 1010 PPP______PPP__ WP131954 15.8994 134.592 67 1 15.8197 134.757 9 1000 0 0 15.8197 134.757 1 33 1002 15.8994 134.592 TC 67 15.8285 134.683 4 67 15.8994 134.592 66 1001 180 14 278
1954273N16146 1954 75 WP MM NANCY 1954-10-06 00:00:00 TS 15.9667 133.933 1000 tokyo main 1001 938 OOO______OOO__ jtwc_wp WP131954 16.0000 133.900 70 1 15.9000 134.000 9 1000 0 0 0 15.9000 134.000 2 38 1001 16.0000 133.900 TC 70 16.0000 133.900 4 68 16.0000 133.900 68 1000 180 15 280
1954273N16146 1954 75 WP MM NANCY 1954-10-06 03:00:00 TS 16.1276 133.150 main 928 874 PPP______PPP__ WP131954 16.1274 133.107 70 1 16.0847 133.215 9 998 0 0 16.0847 133.215 2 43 996 16.1274 133.107 TC 70 16.2136 133.146 4 68 16.1274 133.107 69 997 210 16 283
1954273N16146 1954 75 WP MM NANCY 1954-10-06 06:00:00 TS 16.3238 132.348 996 tokyo main 864 814 OOO______OPO__ jtwc_wp WP131954 16.3000 132.300 70 1 16.3000 132.400 9 996 0 0 0 16.3000 132.400 3 48 992 16.3000 132.300 TC 70 16.4430 132.389 4 69 16.3000 132.300 70 995 240 16 286
1954273N16146 1954 75 WP MM NANCY 1954-10-06 09:00:00 TS 16.5556 131.571 main 821 754 PPP______PPP__ WP131954 16.5719 131.565 70 1 16.4872 131.558 9 993 0 0 16.4797 131.558 3 53 988 16.5719 131.565 TC 70 16.6509 131.612 4 69 16.5719 131.565 70 992 240 16 285
1954273N16146 1954 75 WP MM NANCY 1954-10-06 12:00:00 TS 16.7333 130.767 990 tokyo main 754 673 OOO______OOO__ jtwc_wp WP131954 16.8000 130.800 70 1 16.6000 130.700 9 990 0 0 0 16.6000 130.700 3 58 985 16.8000 130.800 TC 70 16.8000 130.800 4 70 16.8000 130.800 70 989 240 16 277
1954273N16146 1954 75 WP MM NANCY 1954-10-06 15:00:00 TS 16.7560 129.895 main 673 584 PPP______PPP__ WP131954 16.8449 129.922 70 1 16.5722 129.850 9 985 0 0 16.6297 129.850 3 63 981 16.8449 129.922 TC 70 16.7994 129.905 4 72 16.8449 129.922 70 986 240 17 269
1954273N16146 1954 75 WP MM NANCY 1954-10-06 18:00:00 TS 16.7072 128.997 980 tokyo main 584 498 OOO______OPO__ jtwc_wp WP131954 16.8000 129.000 70 1 16.5000 129.000 9 980 0 0 0 16.6000 129.000 4 68 978 16.8000 129.000 TC 70 16.7431 128.982 4 74 16.8000 129.000 70 983 240 17 266
1954273N16146 1954 75 WP MM NANCY 1954-10-06 21:00:00 TS 16.6362 128.093 main 498 433 PPP______PPP__ WP131954 16.7275 128.070 75 1 16.4473 128.142 9 977 0 0 16.4972 128.142 4 72 974 16.7275 128.070 TC 75 16.6901 128.067 4 76 16.7275 128.070 74 976 240 17 267
1954273N16146 1954 75 WP MM NANCY 1954-10-07 00:00:00 TS 16.6333 127.233 975 tokyo main 426 392 OOO______OOO__ jtwc_wp WP131954 16.7000 127.200 80 1 16.5000 127.300 9 975 0 0 0 16.5000 127.300 4 77 970 16.7000 127.200 TC 80 16.7000 127.200 4 78 16.7000 127.200 78 969 240 16 277
1954273N16146 1954 75 WP MM NANCY 1954-10-07 03:00:00 TS 16.8170 126.470 main 392 350 PPP______PPP__ WP131954 16.7969 126.477 82 1 16.7846 126.493 9 970 0 0 16.8347 126.486 4 82 966 16.7969 126.477 TC 82 16.8924 126.411 4 79 16.7969 126.477 81 967 240 15 287
1954273N16146 1954 75 WP MM NANCY 1954-10-07 06:00:00 TS 17.0747 125.745 965 tokyo main 340 267 OOO______OPO__ jtwc_wp WP131954 17.0000 125.800 85 2 17.1000 125.700 9 965 0 0 0 17.2000 125.700 5 87 963 17.0000 125.800 TC 85 17.1484 125.671 4 81 17.0000 125.800 85 965 240 15 290
1954273N16146 1954 75 WP MM NANCY 1954-10-07 09:00:00 TS 17.3274 124.987 main 267 199 PPP______PPP__ WP131954 17.3374 125.051 85 2 17.2450 124.870 9 965 0 0 17.3023 124.927 5 87 964 17.3374 125.051 TC 85 17.4052 124.970 4 83 17.3374 125.051 85 966 240 15 287
1954273N16146 1954 75 WP MM NANCY 1954-10-07 12:00:00 TS 17.5000 124.250 965 tokyo main 199 129 OOO______OOO__ jtwc_wp WP131954 17.6000 124.300 85 2 17.3000 124.100 9 965 0 0 0 17.3000 124.200 5 87 965 17.6000 124.300 TC 85 17.6000 124.300 4 85 17.6000 124.300 85 967 240 14 276
1954273N16146 1954 75 WP MM NANCY 1954-10-07 15:00:00 TS 17.4780 123.558 main 129 64 PPP______PPP__ WP131954 17.5374 123.569 85 2 17.3146 123.462 9 965 0 0 17.2997 123.527 5 87 965 17.5374 123.569 TC 85 17.6415 123.653 4 83 17.5374 123.569 85 968 240 13 266
1954273N16146 1954 75 WP MM NANCY 1954-10-07 18:00:00 TS 17.4026 122.922 965 tokyo main 54 11 OOO______OPO__ jtwc_wp WP131954 17.4000 122.900 85 2 17.3000 122.900 9 965 0 0 0 17.3000 122.900 5 87 965 17.4000 122.900 TC 85 17.6158 123.033 4 81 17.4000 122.900 85 970 240 12 266
1954273N16146 1954 75 WP MM NANCY 1954-10-07 21:00:00 TS 17.3996 122.354 main 11 0 PPP______PPP__ WP131954 17.4119 122.350 82 1 17.2772 122.357 9 965 0 0 17.3273 122.292 5 82 970 17.4119 122.350 TC 82 17.5572 122.422 4 79 17.4119 122.350 81 971 210 11 272
1954273N16146 1954 75 WP MM NANCY 1954-10-08 00:00:00 TS 17.4500 121.783 965 tokyo main 0 0 OOO______OOO__ jtwc_wp WP131954 17.5000 121.800 80 1 17.3000 121.800 9 965 0 0 0 17.4000 121.700 4 77 975 17.5000 121.800 TC 80 17.5000 121.800 4 78 17.5000 121.800 78 972 180 12 279
1954273N16146 1954 75 WP MM NANCY 1954-10-08 03:00:00 TS 17.5938 121.128 main 0 0 PPP______PPP__ WP131954 17.6800 121.116 75 1 17.4499 121.173 9 972 0 0 17.5721 121.123 4 72 977 17.6800 121.116 TC 75 17.5009 121.123 4 76 17.6800 121.116 74 973 210 13 281
1954273N16146 1954 75 WP MM NANCY 1954-10-08 06:00:00 TS 17.7012 120.439 980 tokyo main 0 0 OOO______OPO__ jtwc_wp WP131954 17.8000 120.400 70 1 17.6000 120.500 9 980 0 0 0 17.7000 120.500 4 68 980 17.8000 120.400 TC 70 17.5075 120.435 4 74 17.8000 120.400 70 975 240 13 272
1954273N16146 1954 75 WP MM NANCY 1954-10-08 09:00:00 TS 17.6450 119.744 main 63 63 PPP______PPP__ WP131954 17.6948 119.727 70 1 17.6451 119.785 9 980 0 0 17.6303 119.742 4 68 981 17.6948 119.727 TC 70 17.5103 119.755 4 72 17.6948 119.727 70 976 240 13 262
1954273N16146 1954 75 WP MM NANCY 1954-10-08 12:00:00 TS 17.5167 119.083 980 tokyo main 127 127 OOO______OOO__ jtwc_wp WP131954 17.5000 119.100 70 1 17.6000 119.100 9 980 0 0 0 17.5000 119.000 4 68 982 17.5000 119.100 TC 70 17.5000 119.100 4 70 17.5000 119.100 70 977 240 12 257
1954273N16146 1954 75 WP MM NANCY 1954-10-08 15:00:00 TS 17.3786 118.510 main 185 185 PPP______PPP__ WP131954 17.3197 118.542 70 1 17.4346 118.527 9 980 0 0 17.4346 118.420 4 68 982 17.3197 118.542 TC 70 17.4434 118.484 4 70 17.3197 118.542 70 978 240 11 257
1954273N16146 1954 75 WP MM NANCY 1954-10-08 18:00:00 TS 17.2794 117.966 980 tokyo main 221 221 OOO______OPO__ jtwc_wp WP131954 17.2000 118.000 70 1 17.3000 118.000 9 980 0 0 0 17.4000 117.900 4 68 982 17.2000 118.000 TC 70 17.3767 117.897 4 70 17.2000 118.000 70 979 240 11 264
1954273N16146 1954 75 WP MM NANCY 1954-10-08 21:00:00 TS 17.2581 117.387 main 278 278 PPP______PPP__ WP131954 17.1750 117.392 70 1 17.3473 117.458 9 980 0 0 17.3549 117.350 4 68 982 17.1750 117.392 TC 70 17.3216 117.337 4 70 17.1750 117.392 70 980 270 11 274
1954273N16146 1954 75 WP MM NANCY 1954-10-09 00:00:00 TS 17.3500 116.817 980 tokyo main 342 338 OOO______OOO__ jtwc_wp WP131954 17.3000 116.800 70 1 17.5000 116.900 9 980 0 0 0 17.4000 116.800 4 68 982 17.3000 116.800 TC 70 17.3000 116.800 4 70 17.3000 116.800 70 982 300 11 289
1954273N16146 1954 75 WP MM NANCY 1954-10-09 03:00:00 TS 17.6220 116.270 main 399 399 PPP______PPP__ WP131954 17.6873 116.286 70 1 17.6926 116.278 9 980 0 0 17.6350 116.228 4 68 981 17.6873 116.286 TC 70 17.3429 116.255 4 69 17.6873 116.286 70 980 270 11 297
1954273N16146 1954 75 WP MM NANCY 1954-10-09 06:00:00 TS 17.8700 115.756 980 tokyo main 461 461 OOO______OPO__ jtwc_wp WP131954 18.0000 115.800 70 1 17.9000 115.700 9 980 0 0 0 17.9000 115.700 4 68 980 18.0000 115.800 TC 70 17.4197 115.733 4 69 18.0000 115.800 70 978 240 10 284
1954273N16146 1954 75 WP MM NANCY 1954-10-09 09:00:00 TS 17.8643 115.280 main 491 457 PPP______PPP__ WP131954 17.8524 115.292 70 1 18.0796 115.277 9 980 0 0 18.0372 115.285 4 68 980 17.8524 115.292 TC 70 17.5117 115.245 4 68 17.8524 115.292 69 977 270 9 264
1954273N16146 1954 75 WP MM NANCY 1954-10-09 12:00:00 TS 17.7833 114.833 980 tokyo main 448 410 OOO______OOO__ jtwc_wp WP131954 17.6000 114.800 70 1 18.2000 114.900 9 980 0 0 0 18.1000 114.900 4 68 980 17.6000 114.800 TC 70 17.6000 114.800 4 68 17.6000 114.800 68 977 300 9 264
1954273N16146 1954 75 WP MM NANCY 1954-10-09 15:00:00 TS 17.7771 114.376 main 410 374 PPP______PPP__ WP131954 17.5550 114.313 67 1 18.2299 114.457 9 980 0 0 18.1150 114.450 4 68 980 17.5550 114.313 TC 67 17.6524 114.411 4 67 17.5550 114.313 66 978 300 8 271
1954273N16146 1954 75 WP MM NANCY 1954-10-09 18:00:00 TS 17.7999 113.960 980 tokyo main 374 339 OOO______OPO__ jtwc_wp WP131954 17.6000 113.900 65 1 18.2000 114.000 9 980 0 0 0 18.1000 114.000 4 68 980 17.6000 113.900 TC 65 17.6991 114.062 4 66 17.6000 113.900 65 979 300 7 275
1954273N16146 1954 75 WP MM NANCY 1954-10-09 21:00:00 TS 17.8342 113.631 main 339 307 PPP______PPP__ WP131954 17.6698 113.635 65 1 18.1499 113.550 9 980 0 0 18.0998 113.600 4 68 980 17.6698 113.635 TC 65 17.7463 113.733 4 65 17.6698 113.635 65 980 270 6 279
1954273N16146 1954 75 WP MM NANCY 1954-10-10 00:00:00 TS 17.9000 113.317 980 tokyo main 307 276 OOO______OOO__ jtwc_wp WP131954 17.8000 113.400 65 1 18.1000 113.100 9 980 0 0 0 18.1000 113.200 4 68 980 17.8000 113.400 TC 65 17.8000 113.400 4 65 17.8000 113.400 65 981 240 7 286
1954273N16146 1954 75 WP MM NANCY 1954-10-10 03:00:00 TS 18.0239 112.948 main 267 233 PPP______PPP__ WP131954 18.0225 113.073 65 1 18.0924 112.650 9 980 0 0 18.0999 112.757 4 68 980 18.0225 113.073 TC 65 17.8835 113.061 4 65 18.0225 113.073 65 981 240 8 287
1954273N16146 1954 75 WP MM NANCY 1954-10-10 06:00:00 TS 18.1286 112.552 980 tokyo main 233 195 OOO______OPO__ jtwc_wp WP131954 18.2000 112.700 65 1 18.1000 112.200 9 980 0 0 0 18.1000 112.300 4 68 980 18.2000 112.700 TC 65 17.9716 112.710 4 65 18.2000 112.700 65 982 240 8 278
1954273N16146 1954 75 WP MM NANCY 1954-10-10 09:00:00 TS 18.1314 112.153 main 195 148 PPP______PPP__ WP131954 18.1798 112.330 65 1 18.0999 111.750 9 980 0 0 18.0999 111.850 4 68 980 18.1798 112.330 TC 65 18.0489 112.330 4 65 18.1798 112.330 65 982 240 8 268
1954273N16146 1954 75 WP MM NANCY 1954-10-10 12:00:00 TS 18.1000 111.717 980 tokyo main 148 107 OOO______OOO__ jtwc_wp WP131954 18.1000 111.900 65 1 18.1000 111.300 9 980 0 0 0 18.1000 111.400 4 68 980 18.1000 111.900 TC 65 18.1000 111.900 4 65 18.1000 111.900 65 983 240 9 268
1954273N16146 1954 75 WP MM NANCY 1954-10-10 15:00:00 TS 18.1013 111.214 main 107 74 PPP______PPP__ WP131954 18.1000 111.373 65 1 18.1000 110.835 9 980 0 0 18.1074 110.943 4 68 980 18.1000 111.373 TC 65 18.1001 111.388 4 65 18.1000 111.373 65 983 240 10 270
1954273N16146 1954 75 WP MM NANCY 1954-10-10 18:00:00 TS 18.0955 110.688 980 tokyo main 74 39 OOO______OPO__ jtwc_wp WP131954 18.1000 110.800 65 1 18.1000 110.400 9 980 0 0 0 18.1000 110.500 4 68 980 18.1000 110.800 TC 65 18.0730 110.829 4 65 18.1000 110.800 65 984 240 10 267
1954273N16146 1954 75 WP MM NANCY 1954-10-10 21:00:00 TS 18.0569 110.179 main 39 22 PPP______PPP__ WP131954 18.0500 110.227 65 1 18.0998 110.050 9 980 0 0 18.0574 110.085 4 63 982 18.0500 110.227 TC 65 18.0344 110.256 4 65 18.0500 110.227 65 984 210 9 265
1954273N16146 1954 75 WP MM NANCY 1954-10-11 00:00:00 TS 18.0167 109.700 980 tokyo main 22 22 OOO______OOO__ jtwc_wp WP131954 18.0000 109.700 65 1 18.1000 109.700 9 980 0 0 0 18.0000 109.700 3 58 985 18.0000 109.700 TC 65 18.0000 109.700 4 65 18.0000 109.700 65 985 180 9 266
1954273N16146 1954 75 WP MM NANCY 1954-10-11 03:00:00 TS 18.0003 109.287 main 30 30 PPP______PPP__ WP131954 17.9921 109.300 65 1 18.0924 109.272 9 982 0 0 17.9574 109.343 3 53 987 17.9921 109.300 TC 65 17.9759 109.207 4 65 17.9921 109.300 65 985 180 8 268
1954273N16146 1954 75 WP MM NANCY 1954-10-11 06:00:00 TS 17.9936 108.872 985 tokyo main 45 45 OOO______OPO__ jtwc_wp WP131954 18.0000 108.900 65 1 18.1000 108.800 9 985 0 0 0 17.9000 109.000 3 48 990 18.0000 108.900 TC 65 17.9616 108.735 4 65 18.0000 108.900 65 986 180 9 269
1954273N16146 1954 75 WP MM NANCY 1954-10-11 09:00:00 TS 17.9799 108.387 main 64 64 PPP______PPP__ WP131954 17.9851 108.365 65 1 18.1424 108.308 9 985 0 0 17.8149 108.650 3 43 992 17.9851 108.365 TC 65 17.9665 108.270 4 65 17.9851 108.365 65 987 180 10 270
1954273N16146 1954 75 WP MM NANCY 1954-10-11 12:00:00 TS 17.9957 107.865 985 tokyo main 101 95 OOO______OOO__ jtwc_wp WP131954 18.0000 107.800 65 1 18.2000 107.800 9 985 0 0 0 17.7000 108.300 2 38 995 18.0000 107.800 TC 65 18.0000 107.800 4 65 18.0000 107.800 65 988 180 10 275
1954273N16146 1954 75 WP MM NANCY 1954-10-11 15:00:00 TS 18.0625 107.357 main 97 53 PPP______PPP__ WP131954 18.0848 107.293 65 1 18.2424 107.292 9 985 0 0 17.5576 107.950 2 38 995 18.0848 107.293 TC 65 18.0680 107.316 4 65 18.0848 107.293 65 988 180 10 280
1954273N16146 1954 75 WP MM NANCY 1954-10-11 18:00:00 TS 18.1746 106.843 985 tokyo main 43 15 OOO______OPO__ jtwc_wp WP131954 18.2000 106.800 65 1 18.3000 106.800 9 985 0 0 0 17.4000 107.600 2 38 995 18.2000 106.800 TC 65 18.1638 106.818 4 65 18.2000 106.800 65 989 180 10 285
1954273N16146 1954 75 WP MM NANCY 1954-10-11 21:00:00 TS 18.3176 106.349 main 11 0 PP_______PPP__ WP131954 18.3068 106.360 65 1 18.3699 106.335 9 985 0 0 2 18.3068 106.360 TC 65 18.2778 106.312 4 65 18.3068 106.360 65 990 150 10 284
1954273N16146 1954 75 WP MM NANCY 1954-10-12 00:00:00 TS 18.4200 105.820 985 tokyo main 0 0 OO_______OOO__ jtwc_wp WP131954 18.4000 105.800 65 1 18.5000 105.900 9 985 0 0 0 18.4000 105.800 TC 65 18.4000 105.800 4 65 18.4000 105.800 65 991 120 13 271
1954273N16146 1954 75 WP MM NANCY 1954-10-12 03:00:00 TS 18.3334 104.986 main 0 0 PP_______P_P__ WP131954 18.2040 104.860 65 1 18.7227 105.493 9 990 0 0 18.2040 104.860 TC 65 4 18.4615 104.980 65 991 90 16 275
1954273N16146 1954 75 WP MM NANCY 1954-10-12 06:00:00 TS 18.5500 104.110 995 tokyo main 0 0 OO_______O_O__ jtwc_wp WP131954 18.5000 104.000 65 1 19.0000 105.100 9 995 0 0 0 18.5000 104.000 TC 65 4 18.5000 104.000 65 992 60 22 328
1954273N16146 1954 75 WP MM NANCY 1954-10-12 09:00:00 TS 20.1809 103.763 main 0 0 P________P____ WP131954 20.1809 103.763 55 0 9 0 0 20.1809 103.763 TC 55 4 35 351
1954273N16146 1954 75 WP MM NANCY 1954-10-12 12:00:00 TS 22.0000 103.500 main 0 0 O________O____ jtwc_wp WP131954 22.0000 103.500 45 0 22.0000 103.500 TC 45 28 336
1954273N16146 1954 75 WP MM NANCY 1954-10-12 15:00:00 TS 22.6888 102.574 main 0 0 P________P____ WP131954 22.6888 102.574 37 0 22.6888 102.574 TC 37 21 298
1954273N16146 1954 75 WP MM NANCY 1954-10-12 18:00:00 TS 23.0000 101.500 main 0 0 O________O____ jtwc_wp WP131954 23.0000 101.500 30 -1 23.0000 101.500 TC 30 19 293
1954273N16146 1954 75 WP MM NANCY 1954-10-12 21:00:00 TS 23.4369 100.664 main 0 0 P________P____ WP131954 23.4369 100.664 25 -1 23.4369 100.664 TC 25 17 306
1954273N16146 1954 75 WP MM NANCY 1954-10-13 00:00:00 TS 24.0000 100.000 main 0 O________O____ jtwc_wp WP131954 24.0000 100.000 20 -1 24.0000 100.000 TC 20 17 313

デジタル台風データ・検索

IBTrACS Databaseについて

本データベースは、米国NOAAが公開する1842年以降の世界の熱帯低気圧のベストトラックデータアーカイブInternational Best Track Archive for Climate Stewardship (IBTrACS)を、ウェブで閲覧しやすい形式に変換したものです。

最終更新日:2021-12-03